sensor_id;sensor_type;location;lat;lon;timestamp;pressure;altitude;pressure_sealevel;temperature;humidity
28935;BME280;16044;52.726;-2.108;2023-04-29T00:01:24;100821.34;;;10.46;97.18
28935;BME280;16044;52.726;-2.108;2023-04-29T00:03:52;100818.63;;;10.46;97.37
28935;BME280;16044;52.726;-2.108;2023-04-29T00:06:19;100819.47;;;10.47;98.14
28935;BME280;16044;52.726;-2.108;2023-04-29T00:08:47;100820.50;;;10.46;98.60
28935;BME280;16044;52.726;-2.108;2023-04-29T00:11:14;100828.28;;;10.49;98.34
28935;BME280;16044;52.726;-2.108;2023-04-29T00:13:41;100825.09;;;10.53;97.57
28935;BME280;16044;52.726;-2.108;2023-04-29T00:16:08;100827.28;;;10.58;97.26
28935;BME280;16044;52.726;-2.108;2023-04-29T00:18:35;100831.34;;;10.54;97.61
28935;BME280;16044;52.726;-2.108;2023-04-29T00:21:05;100834.91;;;10.54;98.07
28935;BME280;16044;52.726;-2.108;2023-04-29T00:23:33;100834.72;;;10.56;98.22
28935;BME280;16044;52.726;-2.108;2023-04-29T00:26:00;100834.25;;;10.61;97.67
28935;BME280;16044;52.726;-2.108;2023-04-29T00:28:27;100838.47;;;10.63;97.59
28935;BME280;16044;52.726;-2.108;2023-04-29T00:30:54;100837.28;;;10.66;97.14
28935;BME280;16044;52.726;-2.108;2023-04-29T00:33:22;100840.84;;;10.66;97.47
28935;BME280;16044;52.726;-2.108;2023-04-29T00:35:49;100839.16;;;10.65;97.90
28935;BME280;16044;52.726;-2.108;2023-04-29T00:38:16;100840.19;;;10.72;96.87
28935;BME280;16044;52.726;-2.108;2023-04-29T00:40:43;100838.13;;;10.75;96.82
28935;BME280;16044;52.726;-2.108;2023-04-29T00:43:11;100840.19;;;10.72;97.45
28935;BME280;16044;52.726;-2.108;2023-04-29T00:45:38;100825.25;;;10.77;97.24
28935;BME280;16044;52.726;-2.108;2023-04-29T00:48:05;100827.81;;;10.78;96.92
28935;BME280;16044;52.726;-2.108;2023-04-29T00:50:33;100821.53;;;10.78;97.34
28935;BME280;16044;52.726;-2.108;2023-04-29T00:53:02;100822.91;;;10.82;96.68
28935;BME280;16044;52.726;-2.108;2023-04-29T00:55:32;100826.59;;;10.81;96.85
28935;BME280;16044;52.726;-2.108;2023-04-29T00:57:59;100832.38;;;10.78;97.32
28935;BME280;16044;52.726;-2.108;2023-04-29T01:00:29;100837.81;;;10.78;97.27
28935;BME280;16044;52.726;-2.108;2023-04-29T01:02:56;100839.84;;;10.76;97.37
28935;BME280;16044;52.726;-2.108;2023-04-29T01:05:25;100840.69;;;10.76;97.57
28935;BME280;16044;52.726;-2.108;2023-04-29T01:11:09;100840.31;;;10.79;97.55
28935;BME280;16044;52.726;-2.108;2023-04-29T01:13:53;100839.50;;;10.79;96.84
28935;BME280;16044;52.726;-2.108;2023-04-29T01:16:51;100843.91;;;10.80;97.26
28935;BME280;16044;52.726;-2.108;2023-04-29T01:19:48;100841.03;;;10.81;97.23
28935;BME280;16044;52.726;-2.108;2023-04-29T01:22:16;100836.78;;;10.87;97.53
28935;BME280;16044;52.726;-2.108;2023-04-29T01:24:45;100838.16;;;10.91;96.98
28935;BME280;16044;52.726;-2.108;2023-04-29T01:29:48;100844.56;;;10.90;97.33
28935;BME280;16044;52.726;-2.108;2023-04-29T01:38:42;100837.78;;;10.94;97.27
28935;BME280;16044;52.726;-2.108;2023-04-29T01:41:17;100842.88;;;10.97;97.57
28935;BME280;16044;52.726;-2.108;2023-04-29T01:43:47;100846.28;;;10.99;97.00
28935;BME280;16044;52.726;-2.108;2023-04-29T01:46:17;100830.84;;;11.00;97.46
28935;BME280;16044;52.726;-2.108;2023-04-29T01:48:45;100835.59;;;10.98;98.18
28935;BME280;16044;52.726;-2.108;2023-04-29T01:51:12;100838.97;;;11.00;98.65
28935;BME280;16044;52.726;-2.108;2023-04-29T01:53:39;100836.75;;;11.03;98.05
28935;BME280;16044;52.726;-2.108;2023-04-29T01:56:07;100838.09;;;11.07;97.84
28935;BME280;16044;52.726;-2.108;2023-04-29T01:58:34;100839.81;;;11.08;97.76
28935;BME280;16044;52.726;-2.108;2023-04-29T02:01:01;100847.28;;;11.06;98.03
28935;BME280;16044;52.726;-2.108;2023-04-29T02:03:28;100839.97;;;11.07;98.03
28935;BME280;16044;52.726;-2.108;2023-04-29T02:05:55;100850.66;;;11.08;98.08
28935;BME280;16044;52.726;-2.108;2023-04-29T02:08:23;100846.09;;;11.09;97.99
28935;BME280;16044;52.726;-2.108;2023-04-29T02:10:54;100842.88;;;11.14;97.58
28935;BME280;16044;52.726;-2.108;2023-04-29T02:13:21;100840.31;;;11.12;97.61
28935;BME280;16044;52.726;-2.108;2023-04-29T02:15:48;100833.19;;;11.11;97.92
28935;BME280;16044;52.726;-2.108;2023-04-29T02:18:16;100835.75;;;11.12;97.87
28935;BME280;16044;52.726;-2.108;2023-04-29T02:20:43;100828.97;;;11.08;98.48
28935;BME280;16044;52.726;-2.108;2023-04-29T02:23:10;100824.88;;;11.12;97.53
28935;BME280;16044;52.726;-2.108;2023-04-29T02:25:37;100825.94;;;11.11;97.47
28935;BME280;16044;52.726;-2.108;2023-04-29T02:28:04;100822.88;;;11.06;97.46
28935;BME280;16044;52.726;-2.108;2023-04-29T02:30:31;100823.72;;;10.99;97.62
28935;BME280;16044;52.726;-2.108;2023-04-29T02:32:58;100840.66;;;10.92;97.32
28935;BME280;16044;52.726;-2.108;2023-04-29T02:35:25;100843.38;;;10.84;97.40
28935;BME280;16044;52.726;-2.108;2023-04-29T02:37:52;100843.22;;;10.78;97.28
28935;BME280;16044;52.726;-2.108;2023-04-29T02:40:19;100843.88;;;10.71;97.61
28935;BME280;16044;52.726;-2.108;2023-04-29T02:42:46;100843.06;;;10.71;97.64
28935;BME280;16044;52.726;-2.108;2023-04-29T02:45:13;100842.53;;;10.67;98.25
28935;BME280;16044;52.726;-2.108;2023-04-29T02:47:40;100846.97;;;10.68;98.44
28935;BME280;16044;52.726;-2.108;2023-04-29T02:50:08;100844.75;;;10.72;98.37
28935;BME280;16044;52.726;-2.108;2023-04-29T02:52:35;100840.19;;;10.72;98.49
28935;BME280;16044;52.726;-2.108;2023-04-29T02:55:03;100848.97;;;10.75;98.78
28935;BME280;16044;52.726;-2.108;2023-04-29T02:57:30;100857.09;;;10.83;98.58
28935;BME280;16044;52.726;-2.108;2023-04-29T02:59:58;100855.06;;;10.85;98.94
28935;BME280;16044;52.726;-2.108;2023-04-29T03:02:25;100860.50;;;10.85;99.19
28935;BME280;16044;52.726;-2.108;2023-04-29T03:04:52;100857.47;;;10.80;100.00
28935;BME280;16044;52.726;-2.108;2023-04-29T03:07:19;100849.50;;;10.78;100.00
28935;BME280;16044;52.726;-2.108;2023-04-29T03:09:46;100852.72;;;10.82;99.87
28935;BME280;16044;52.726;-2.108;2023-04-29T03:12:13;100854.59;;;10.81;100.00
28935;BME280;16044;52.726;-2.108;2023-04-29T03:14:41;100860.03;;;10.81;100.00
28935;BME280;16044;52.726;-2.108;2023-04-29T03:17:08;100857.09;;;10.83;99.94
28935;BME280;16044;52.726;-2.108;2023-04-29T03:19:35;100857.97;;;10.83;99.92
28935;BME280;16044;52.726;-2.108;2023-04-29T03:22:02;100863.56;;;10.82;99.79
28935;BME280;16044;52.726;-2.108;2023-04-29T03:24:29;100861.69;;;10.82;99.63
28935;BME280;16044;52.726;-2.108;2023-04-29T03:26:56;100862.91;;;10.80;99.56
28935;BME280;16044;52.726;-2.108;2023-04-29T03:29:25;100867.63;;;10.78;100.00
28935;BME280;16044;52.726;-2.108;2023-04-29T03:31:53;100866.59;;;10.79;99.88
28935;BME280;16044;52.726;-2.108;2023-04-29T03:34:20;100868.66;;;10.77;100.00
28935;BME280;16044;52.726;-2.108;2023-04-29T03:36:47;100873.38;;;10.75;100.00
28935;BME280;16044;52.726;-2.108;2023-04-29T03:39:14;100868.81;;;10.75;100.00
28935;BME280;16044;52.726;-2.108;2023-04-29T03:41:41;100870.34;;;10.78;100.00
28935;BME280;16044;52.726;-2.108;2023-04-29T03:44:09;100883.91;;;10.78;100.00
28935;BME280;16044;52.726;-2.108;2023-04-29T03:46:36;100872.03;;;10.79;100.00
28935;BME280;16044;52.726;-2.108;2023-04-29T03:49:03;100880.16;;;10.79;100.00
28935;BME280;16044;52.726;-2.108;2023-04-29T03:51:30;100872.88;;;10.79;100.00
28935;BME280;16044;52.726;-2.108;2023-04-29T03:53:57;100875.41;;;10.81;100.00
28935;BME280;16044;52.726;-2.108;2023-04-29T03:56:25;100874.41;;;10.82;100.00
28935;BME280;16044;52.726;-2.108;2023-04-29T03:58:52;100871.69;;;10.82;100.00
28935;BME280;16044;52.726;-2.108;2023-04-29T04:01:19;100871.19;;;10.78;100.00
28935;BME280;16044;52.726;-2.108;2023-04-29T04:03:46;100867.44;;;10.79;100.00
28935;BME280;16044;52.726;-2.108;2023-04-29T04:06:13;100872.38;;;10.84;100.00
28935;BME280;16044;52.726;-2.108;2023-04-29T04:08:40;100871.69;;;10.82;100.00
28935;BME280;16044;52.726;-2.108;2023-04-29T04:11:07;100866.28;;;10.82;100.00
28935;BME280;16044;52.726;-2.108;2023-04-29T04:13:35;100873.38;;;10.83;100.00
28935;BME280;16044;52.726;-2.108;2023-04-29T04:16:03;100863.41;;;10.83;100.00
28935;BME280;16044;52.726;-2.108;2023-04-29T04:18:30;100868.31;;;10.80;100.00
28935;BME280;16044;52.726;-2.108;2023-04-29T04:20:57;100865.25;;;10.83;100.00
28935;BME280;16044;52.726;-2.108;2023-04-29T04:23:24;100873.38;;;10.83;100.00
28935;BME280;16044;52.726;-2.108;2023-04-29T04:25:51;100867.97;;;10.83;100.00
28935;BME280;16044;52.726;-2.108;2023-04-29T04:28:19;100869.31;;;10.79;100.00
28935;BME280;16044;52.726;-2.108;2023-04-29T04:30:46;100869.00;;;10.82;100.00
28935;BME280;16044;52.726;-2.108;2023-04-29T04:33:13;100873.38;;;10.83;100.00
28935;BME280;16044;52.726;-2.108;2023-04-29T04:35:42;100877.97;;;10.82;100.00
28935;BME280;16044;52.726;-2.108;2023-04-29T04:38:09;100873.38;;;10.83;100.00
28935;BME280;16044;52.726;-2.108;2023-04-29T04:40:40;100879.16;;;10.80;100.00
28935;BME280;16044;52.726;-2.108;2023-04-29T04:43:07;100882.56;;;10.82;100.00
28935;BME280;16044;52.726;-2.108;2023-04-29T04:45:34;100875.09;;;10.84;100.00
28935;BME280;16044;52.726;-2.108;2023-04-29T04:48:02;100883.38;;;10.82;100.00
28935;BME280;16044;52.726;-2.108;2023-04-29T04:50:29;100879.84;;;10.82;100.00
28935;BME280;16044;52.726;-2.108;2023-04-29T04:52:56;100884.91;;;10.85;100.00
28935;BME280;16044;52.726;-2.108;2023-04-29T04:55:23;100882.56;;;10.82;100.00
28935;BME280;16044;52.726;-2.108;2023-04-29T04:57:51;100883.38;;;10.82;100.00
28935;BME280;16044;52.726;-2.108;2023-04-29T05:00:18;100892.19;;;10.84;100.00
28935;BME280;16044;52.726;-2.108;2023-04-29T05:02:45;100889.50;;;10.84;100.00
28935;BME280;16044;52.726;-2.108;2023-04-29T05:05:13;100878.16;;;10.89;100.00
28935;BME280;16044;52.726;-2.108;2023-04-29T05:07:40;100894.44;;;10.89;100.00
28935;BME280;16044;52.726;-2.108;2023-04-29T05:10:08;100896.09;;;10.90;100.00
28935;BME280;16044;52.726;-2.108;2023-04-29T05:12:35;100895.25;;;10.89;100.00
28935;BME280;16044;52.726;-2.108;2023-04-29T05:15:02;100894.44;;;10.89;100.00
28935;BME280;16044;52.726;-2.108;2023-04-29T05:17:30;100894.44;;;10.89;100.00
28935;BME280;16044;52.726;-2.108;2023-04-29T05:19:56;100904.06;;;10.91;100.00
28935;BME280;16044;52.726;-2.108;2023-04-29T05:22:24;100895.94;;;10.91;100.00
28935;BME280;16044;52.726;-2.108;2023-04-29T05:24:51;100895.78;;;10.93;100.00
28935;BME280;16044;52.726;-2.108;2023-04-29T05:27:19;100894.75;;;10.94;100.00
28935;BME280;16044;52.726;-2.108;2023-04-29T05:29:47;100896.09;;;10.98;100.00
28935;BME280;16044;52.726;-2.108;2023-04-29T05:32:14;100908.66;;;10.99;100.00
28935;BME280;16044;52.726;-2.108;2023-04-29T05:34:40;100910.00;;;11.03;100.00
28935;BME280;16044;52.726;-2.108;2023-04-29T05:37:07;100907.63;;;11.08;100.00
28935;BME280;16044;52.726;-2.108;2023-04-29T05:39:34;100913.41;;;11.14;100.00
28935;BME280;16044;52.726;-2.108;2023-04-29T05:42:01;100913.06;;;11.17;100.00
28935;BME280;16044;52.726;-2.108;2023-04-29T05:44:28;100915.78;;;11.25;100.00
28935;BME280;16044;52.726;-2.108;2023-04-29T05:46:56;100912.38;;;11.47;100.00
28935;BME280;16044;52.726;-2.108;2023-04-29T05:49:23;100922.16;;;11.65;100.00
28935;BME280;16044;52.726;-2.108;2023-04-29T05:51:50;100919.09;;;11.76;100.00
28935;BME280;16044;52.726;-2.108;2023-04-29T05:54:17;100929.25;;;11.90;100.00
28935;BME280;16044;52.726;-2.108;2023-04-29T05:56:44;100927.19;;;12.01;100.00
28935;BME280;16044;52.726;-2.108;2023-04-29T05:59:11;100926.50;;;11.99;100.00
28935;BME280;16044;52.726;-2.108;2023-04-29T06:01:38;100929.41;;;11.97;100.00
28935;BME280;16044;52.726;-2.108;2023-04-29T06:04:05;100933.31;;;11.95;100.00
28935;BME280;16044;52.726;-2.108;2023-04-29T06:06:32;100933.66;;;11.92;100.00
28935;BME280;16044;52.726;-2.108;2023-04-29T06:08:59;100928.91;;;11.85;100.00
28935;BME280;16044;52.726;-2.108;2023-04-29T06:11:29;100934.69;;;11.82;100.00
28935;BME280;16044;52.726;-2.108;2023-04-29T06:13:57;100937.38;;;11.82;100.00
28935;BME280;16044;52.726;-2.108;2023-04-29T06:16:23;100935.88;;;11.80;100.00
28935;BME280;16044;52.726;-2.108;2023-04-29T06:18:51;100937.56;;;11.81;100.00
28935;BME280;16044;52.726;-2.108;2023-04-29T06:21:18;100936.38;;;11.75;100.00
28935;BME280;16044;52.726;-2.108;2023-04-29T06:23:45;100941.81;;;11.75;100.00
28935;BME280;16044;52.726;-2.108;2023-04-29T06:26:11;100942.84;;;11.74;100.00
28935;BME280;16044;52.726;-2.108;2023-04-29T06:28:39;100952.00;;;11.73;100.00
28935;BME280;16044;52.726;-2.108;2023-04-29T06:31:06;100950.63;;;11.77;100.00
28935;BME280;16044;52.726;-2.108;2023-04-29T06:33:33;100951.31;;;11.79;100.00
28935;BME280;16044;52.726;-2.108;2023-04-29T06:36:00;100958.13;;;11.83;100.00
28935;BME280;16044;52.726;-2.108;2023-04-29T06:38:27;100957.06;;;11.84;100.00
28935;BME280;16044;52.726;-2.108;2023-04-29T06:40:54;100963.72;;;11.90;100.00
28935;BME280;16044;52.726;-2.108;2023-04-29T06:43:26;100971.38;;;11.95;100.00
28935;BME280;16044;52.726;-2.108;2023-04-29T06:45:53;100972.88;;;11.97;100.00
28935;BME280;16044;52.726;-2.108;2023-04-29T06:48:21;100979.47;;;12.03;100.00
28935;BME280;16044;52.726;-2.108;2023-04-29T06:50:53;100978.44;;;12.04;100.00
28935;BME280;16044;52.726;-2.108;2023-04-29T06:53:22;100981.16;;;12.04;100.00
28935;BME280;16044;52.726;-2.108;2023-04-29T06:55:50;100986.41;;;12.05;100.00
28935;BME280;16044;52.726;-2.108;2023-04-29T06:58:18;100976.91;;;12.09;100.00
28935;BME280;16044;52.726;-2.108;2023-04-29T07:00:47;100990.13;;;12.13;100.00
28935;BME280;16044;52.726;-2.108;2023-04-29T07:03:16;100988.94;;;12.15;100.00
28935;BME280;16044;52.726;-2.108;2023-04-29T07:05:44;100992.31;;;12.17;100.00
28935;BME280;16044;52.726;-2.108;2023-04-29T07:08:12;100991.31;;;12.18;100.00
28935;BME280;16044;52.726;-2.108;2023-04-29T07:10:39;100989.44;;;12.27;100.00
28935;BME280;16044;52.726;-2.108;2023-04-29T07:13:09;100997.38;;;12.28;100.00
28935;BME280;16044;52.726;-2.108;2023-04-29T07:15:36;100992.81;;;12.29;100.00
28935;BME280;16044;52.726;-2.108;2023-04-29T07:18:04;100986.84;;;12.34;100.00
28935;BME280;16044;52.726;-2.108;2023-04-29T07:20:32;100992.66;;;12.31;100.00
28935;BME280;16044;52.726;-2.108;2023-04-29T07:23:02;100999.41;;;12.35;100.00
28935;BME280;16044;52.726;-2.108;2023-04-29T07:25:29;101003.16;;;12.34;100.00
28935;BME280;16044;52.726;-2.108;2023-04-29T07:27:56;100993.97;;;12.35;100.00
28935;BME280;16044;52.726;-2.108;2023-04-29T07:30:23;100996.69;;;12.35;100.00
28935;BME280;16044;52.726;-2.108;2023-04-29T07:32:50;101002.13;;;12.35;100.00
28935;BME280;16044;52.726;-2.108;2023-04-29T07:35:17;100997.53;;;12.35;100.00
28935;BME280;16044;52.726;-2.108;2023-04-29T07:37:44;100996.53;;;12.36;100.00
28935;BME280;16044;52.726;-2.108;2023-04-29T07:40:12;101005.81;;;12.42;100.00
28935;BME280;16044;52.726;-2.108;2023-04-29T07:42:39;101001.25;;;12.42;100.00
28935;BME280;16044;52.726;-2.108;2023-04-29T07:45:06;100997.50;;;12.43;100.00
28935;BME280;16044;52.726;-2.108;2023-04-29T07:47:34;101000.03;;;12.45;100.00
28935;BME280;16044;52.726;-2.108;2023-04-29T07:50:01;101006.53;;;12.44;100.00
28935;BME280;16044;52.726;-2.108;2023-04-29T07:52:29;101001.09;;;12.44;100.00
28935;BME280;16044;52.726;-2.108;2023-04-29T07:54:56;101003.81;;;12.44;100.00
28935;BME280;16044;52.726;-2.108;2023-04-29T07:57:22;101003.44;;;12.47;100.00
28935;BME280;16044;52.726;-2.108;2023-04-29T07:59:51;101006.81;;;12.49;100.00
28935;BME280;16044;52.726;-2.108;2023-04-29T08:02:19;100998.16;;;12.54;100.00
28935;BME280;16044;52.726;-2.108;2023-04-29T08:04:47;101012.59;;;12.54;100.00
28935;BME280;16044;52.726;-2.108;2023-04-29T08:07:17;101013.91;;;12.58;100.00
28935;BME280;16044;52.726;-2.108;2023-04-29T08:09:44;101013.75;;;12.60;100.00
28935;BME280;16044;52.726;-2.108;2023-04-29T08:12:11;101020.34;;;12.65;100.00
28935;BME280;16044;52.726;-2.108;2023-04-29T08:14:38;101022.06;;;12.66;100.00
28935;BME280;16044;52.726;-2.108;2023-04-29T08:17:05;101018.28;;;12.67;100.00
28935;BME280;16044;52.726;-2.108;2023-04-29T08:19:32;101024.91;;;12.73;100.00
28935;BME280;16044;52.726;-2.108;2023-04-29T08:21:59;101027.28;;;12.76;100.00
28935;BME280;16044;52.726;-2.108;2023-04-29T08:24:26;101027.94;;;12.78;100.00
28935;BME280;16044;52.726;-2.108;2023-04-29T08:26:55;101028.72;;;12.87;100.00
28935;BME280;16044;52.726;-2.108;2023-04-29T08:29:22;101023.59;;;12.92;100.00
28935;BME280;16044;52.726;-2.108;2023-04-29T08:31:49;101020.38;;;12.97;100.00
28935;BME280;16044;52.726;-2.108;2023-04-29T08:34:16;101027.63;;;13.04;100.00
28935;BME280;16044;52.726;-2.108;2023-04-29T08:36:43;101022.28;;;13.11;100.00
28935;BME280;16044;52.726;-2.108;2023-04-29T08:39:10;101030.59;;;13.18;100.00
28935;BME280;16044;52.726;-2.108;2023-04-29T08:41:38;101030.03;;;13.22;100.00
28935;BME280;16044;52.726;-2.108;2023-04-29T08:44:05;101035.63;;;13.29;100.00
28935;BME280;16044;52.726;-2.108;2023-04-29T08:46:32;101028.16;;;13.31;100.00
28935;BME280;16044;52.726;-2.108;2023-04-29T08:49:02;101037.47;;;13.37;100.00
28935;BME280;16044;52.726;-2.108;2023-04-29T08:51:29;101045.09;;;13.41;100.00
28935;BME280;16044;52.726;-2.108;2023-04-29T08:53:58;101046.41;;;13.45;100.00
28935;BME280;16044;52.726;-2.108;2023-04-29T08:56:26;101044.34;;;13.48;100.00
28935;BME280;16044;52.726;-2.108;2023-04-29T08:58:56;101043.81;;;13.52;100.00
28935;BME280;16044;52.726;-2.108;2023-04-29T09:01:28;101047.50;;;13.59;100.00
28935;BME280;16044;52.726;-2.108;2023-04-29T09:05:10;101046.41;;;13.69;100.00
28935;BME280;16044;52.726;-2.108;2023-04-29T09:07:15;101040.31;;;13.81;100.00
28935;BME280;16044;52.726;-2.108;2023-04-29T09:09:43;101050.13;;;13.91;100.00
28935;BME280;16044;52.726;-2.108;2023-04-29T09:12:10;101054.28;;;14.01;100.00
28935;BME280;16044;52.726;-2.108;2023-04-29T09:14:37;101049.59;;;14.10;100.00
28935;BME280;16044;52.726;-2.108;2023-04-29T09:17:04;101054.28;;;14.16;100.00
28935;BME280;16044;52.726;-2.108;2023-04-29T09:19:33;101047.06;;;14.23;100.00
28935;BME280;16044;52.726;-2.108;2023-04-29T09:22:02;101052.97;;;14.27;100.00
28935;BME280;16044;52.726;-2.108;2023-04-29T09:24:30;101056.66;;;14.34;100.00
28935;BME280;16044;52.726;-2.108;2023-04-29T09:26:58;101052.97;;;14.42;100.00
28935;BME280;16044;52.726;-2.108;2023-04-29T09:29:26;101054.69;;;14.43;100.00
28935;BME280;16044;52.726;-2.108;2023-04-29T09:31:53;101056.28;;;14.52;100.00
28935;BME280;16044;52.726;-2.108;2023-04-29T09:34:38;101059.59;;;14.62;100.00
28935;BME280;16044;52.726;-2.108;2023-04-29T09:37:23;101061.56;;;14.69;100.00
28935;BME280;16044;52.726;-2.108;2023-04-29T09:39:52;101050.56;;;14.77;100.00
28935;BME280;16044;52.726;-2.108;2023-04-29T09:42:19;101055.88;;;14.85;100.00
28935;BME280;16044;52.726;-2.108;2023-04-29T09:44:46;101057.19;;;14.89;100.00
28935;BME280;16044;52.726;-2.108;2023-04-29T09:47:14;101057.47;;;14.94;100.00
28935;BME280;16044;52.726;-2.108;2023-04-29T09:49:42;101063.03;;;15.01;100.00
28935;BME280;16044;52.726;-2.108;2023-04-29T09:52:13;101062.63;;;15.04;100.00
28935;BME280;16044;52.726;-2.108;2023-04-29T09:54:46;101055.19;;;15.13;100.00
28935;BME280;16044;52.726;-2.108;2023-04-29T09:57:13;101058.19;;;15.18;100.00
28935;BME280;16044;52.726;-2.108;2023-04-29T09:59:41;101051.94;;;15.24;100.00
28935;BME280;16044;52.726;-2.108;2023-04-29T10:02:13;101054.53;;;15.32;99.92
28935;BME280;16044;52.726;-2.108;2023-04-29T10:04:44;101058.25;;;15.46;99.91
28935;BME280;16044;52.726;-2.108;2023-04-29T10:07:15;101053.69;;;15.53;99.10
28935;BME280;16044;52.726;-2.108;2023-04-29T10:09:46;101057.41;;;15.67;98.52
28935;BME280;16044;52.726;-2.108;2023-04-29T10:12:19;101052.47;;;15.77;97.50
28935;BME280;16044;52.726;-2.108;2023-04-29T10:14:56;101055.13;;;15.92;96.37
28935;BME280;16044;52.726;-2.108;2023-04-29T10:20:13;101061.03;;;16.24;95.35
28935;BME280;16044;52.726;-2.108;2023-04-29T10:22:45;101056.66;;;16.30;93.46
28935;BME280;16044;52.726;-2.108;2023-04-29T10:25:14;101052.16;;;16.50;93.94
28935;BME280;16044;52.726;-2.108;2023-04-29T10:27:43;101048.88;;;16.68;92.89
28935;BME280;16044;52.726;-2.108;2023-04-29T10:30:12;101053.31;;;16.76;91.01
28935;BME280;16044;52.726;-2.108;2023-04-29T10:32:46;101052.53;;;16.82;89.52
28935;BME280;16044;52.726;-2.108;2023-04-29T10:35:19;101048.09;;;16.81;87.78
28935;BME280;16044;52.726;-2.108;2023-04-29T10:37:52;101053.13;;;16.77;87.40
28935;BME280;16044;52.726;-2.108;2023-04-29T10:41:03;101051.50;;;16.83;87.69
28935;BME280;16044;52.726;-2.108;2023-04-29T10:43:14;101050.50;;;16.98;87.42
28935;BME280;16044;52.726;-2.108;2023-04-29T10:45:42;101046.34;;;17.15;86.07
28935;BME280;16044;52.726;-2.108;2023-04-29T10:48:12;101046.13;;;17.23;84.23
28935;BME280;16044;52.726;-2.108;2023-04-29T10:50:59;101056.50;;;17.34;83.65
28935;BME280;16044;52.726;-2.108;2023-04-29T10:53:28;101042.59;;;17.43;83.70
28935;BME280;16044;52.726;-2.108;2023-04-29T10:55:58;101045.78;;;17.53;82.54
28935;BME280;16044;52.726;-2.108;2023-04-29T10:58:45;101045.78;;;17.66;82.41
28935;BME280;16044;52.726;-2.108;2023-04-29T11:01:14;101039.88;;;17.76;81.40
28935;BME280;16044;52.726;-2.108;2023-04-29T11:03:55;101035.44;;;17.82;80.69
28935;BME280;16044;52.726;-2.108;2023-04-29T11:06:54;101029.16;;;17.88;79.60
28935;BME280;16044;52.726;-2.108;2023-04-29T11:09:26;101025.75;;;17.99;78.44
28935;BME280;16044;52.726;-2.108;2023-04-29T11:12:01;101040.13;;;18.08;76.49
28935;BME280;16044;52.726;-2.108;2023-04-29T11:17:09;101038.16;;;18.35;77.25
28935;BME280;16044;52.726;-2.108;2023-04-29T11:25:01;101036.81;;;18.58;75.25
28935;BME280;16044;52.726;-2.108;2023-04-29T11:27:31;101026.66;;;18.65;72.98
28935;BME280;16044;52.726;-2.108;2023-04-29T11:30:00;101038.03;;;18.82;73.09
28935;BME280;16044;52.726;-2.108;2023-04-29T11:32:31;101031.19;;;18.98;72.26
28935;BME280;16044;52.726;-2.108;2023-04-29T11:35:14;101025.66;;;19.11;72.12
28935;BME280;16044;52.726;-2.108;2023-04-29T11:37:44;101021.41;;;19.15;70.70
28935;BME280;16044;52.726;-2.108;2023-04-29T11:40:13;101024.63;;;19.37;69.69
28935;BME280;16044;52.726;-2.108;2023-04-29T11:42:44;101023.47;;;19.52;69.63
28935;BME280;16044;52.726;-2.108;2023-04-29T11:45:12;101022.78;;;19.56;68.33
28935;BME280;16044;52.726;-2.108;2023-04-29T11:47:46;101026.53;;;19.62;67.86
28935;BME280;16044;52.726;-2.108;2023-04-29T11:50:15;101018.16;;;19.57;65.36
28935;BME280;16044;52.726;-2.108;2023-04-29T11:52:45;101011.78;;;19.56;65.86
28935;BME280;16044;52.726;-2.108;2023-04-29T11:55:13;101015.94;;;19.65;66.71
28935;BME280;16044;52.726;-2.108;2023-04-29T11:57:40;101006.56;;;19.80;67.21
28935;BME280;16044;52.726;-2.108;2023-04-29T12:00:11;101022.50;;;19.96;66.96
28935;BME280;16044;52.726;-2.108;2023-04-29T12:02:43;101026.19;;;20.09;66.46
28935;BME280;16044;52.726;-2.108;2023-04-29T12:05:13;101020.38;;;20.17;65.15
28935;BME280;16044;52.726;-2.108;2023-04-29T12:07:42;101011.75;;;20.13;62.59
28935;BME280;16044;52.726;-2.108;2023-04-29T12:10:10;101014.34;;;20.08;63.17
28935;BME280;16044;52.726;-2.108;2023-04-29T12:12:38;101010.59;;;20.02;63.62
28935;BME280;16044;52.726;-2.108;2023-04-29T12:15:12;101017.25;;;19.88;62.43
28935;BME280;16044;52.726;-2.108;2023-04-29T12:17:41;101009.47;;;19.85;63.39
28935;BME280;16044;52.726;-2.108;2023-04-29T12:20:08;101009.47;;;19.85;63.17
28935;BME280;16044;52.726;-2.108;2023-04-29T12:22:36;101004.28;;;19.95;64.03
28935;BME280;16044;52.726;-2.108;2023-04-29T12:25:04;101008.84;;;20.08;64.30
28935;BME280;16044;52.726;-2.108;2023-04-29T12:27:34;100997.81;;;20.08;62.60
28935;BME280;16044;52.726;-2.108;2023-04-29T12:30:06;101003.09;;;20.10;63.41
28935;BME280;16044;52.726;-2.108;2023-04-29T12:32:35;100994.84;;;20.10;62.73
28935;BME280;16044;52.726;-2.108;2023-04-29T12:35:03;100994.06;;;20.02;61.85
28935;BME280;16044;52.726;-2.108;2023-04-29T12:37:30;100995.50;;;20.05;61.46
28935;BME280;16044;52.726;-2.108;2023-04-29T12:39:57;100991.50;;;20.08;59.99
28935;BME280;16044;52.726;-2.108;2023-04-29T12:42:31;100991.78;;;20.18;57.90
28935;BME280;16044;52.726;-2.108;2023-04-29T12:44:59;100987.97;;;20.19;58.38
28935;BME280;16044;52.726;-2.108;2023-04-29T12:47:31;100995.69;;;20.29;59.62
28935;BME280;16044;52.726;-2.108;2023-04-29T12:50:04;100997.09;;;20.38;59.07
28935;BME280;16044;52.726;-2.108;2023-04-29T12:52:32;100993.25;;;20.39;59.41
28935;BME280;16044;52.726;-2.108;2023-04-29T12:55:02;100999.59;;;20.39;59.15
28935;BME280;16044;52.726;-2.108;2023-04-29T12:57:30;100999.13;;;20.42;59.50
28935;BME280;16044;52.726;-2.108;2023-04-29T12:59:58;100991.59;;;20.38;60.10
28935;BME280;16044;52.726;-2.108;2023-04-29T13:02:25;100999.91;;;20.31;58.81
28935;BME280;16044;52.726;-2.108;2023-04-29T13:04:52;100993.56;;;20.31;58.13
28935;BME280;16044;52.726;-2.108;2023-04-29T13:07:20;100993.84;;;20.22;58.07